CheckWX is a tool to help pilots better visualize weather data.  It is not intended as a substitute for an official pre-flight weather briefing.

18:25:28 UTC

KSLI TAF
Los Alamitos AAF Airport
Los Alamitos, California, USA
TAF KSLI 271303Z 2713/2819 VRB06KT 8000 BR OVC003 QNH2984INS BECMG 2719/2720 VRB06KT 9999 NSW SKC QNH2990INS BECMG 2814/2815 VRB06KT 8000 BR BKN003 QNH2993INS BECMG 2815/2816 VRB06KT 8000 BR FEW003 QNH2994INS TX25/2721Z TN16/2715Z

May-27@
13:00 UTC

May-27 @ 13:00 UTC

May-27@
19:00 UTC

May-27 @ 19:00 UTC

TAF KSLI 271303Z 2713/2819 VRB06KT 8000 BR OVC003 QNH2984INS

Expired

Wind
  • Variable at 6 KTS
Conditions
Mist
Cloud Levels
  • Overcast at 300' AGL

May-27@
19:00 UTC

May-27 @ 19:00 UTC

May-28@
14:00 UTC

May-28 @ 14:00 UTC

BECMG 2719/2720 VRB06KT 9999 NSW SKC QNH2990INS

Expired

Wind
  • Variable at 6 KTS
Conditions
No significant weather
Cloud Levels
  • Clear skies

May-28@
14:00 UTC

May-28 @ 14:00 UTC

May-28@
15:00 UTC

May-28 @ 15:00 UTC

BECMG 2814/2815 VRB06KT 8000 BR BKN003 QNH2993INS

Expired

Wind
  • Variable at 6 KTS
Conditions
Mist
Cloud Levels
  • Broken at 300' AGL

May-28@
15:00 UTC

May-28 @ 15:00 UTC

May-28@
19:00 UTC

May-28 @ 19:00 UTC

BECMG 2815/2816 VRB06KT 8000 BR FEW003 QNH2994INS TX25/2721Z TN16/2715Z

Becoming

Becoming Conditions expected by Thu, May 28, 2020 @ 16:00 UTC

Wind
  • Variable at 6 KTS
Conditions
Mist
Cloud Levels
  • Few at 300' AGL